Terminal Aerodrome Forecast
Issued by NWS Charleston, WV

Current Version | Previous Version | Graphics & Text | Print | Product List | Glossary On
Versions: 1 2 3 4 5 6 7 8 9 10 11 12 13 14 15 16 17 18 19 20 21 22 23 24 25 26 27 28 29 30 31 32 33
000
FTUS41 KRLX 211152
TAFCRW
TAF
KCRW 211152Z 2112/2212 VRB03KT 6SM -RA OVC035
      TEMPO 2112/2113 2SM -RA BR BKN005
     FM211300 VRB03KT P6SM OVC035
     FM220000 31005KT P6SM BKN025
     FM220300 00000KT P6SM BKN025
     FM220500 00000KT P6SM SCT045
     FM220900 00000KT P6SM SCT150=

USA.gov is the U.S. government's official web portal to all federal, state and local government web resources and services.